createdAt,value
2018-04-23T00:00:12.228Z,16.5
2018-04-23T00:01:13.842Z,16.3
2018-04-23T00:02:15.455Z,16.4
2018-04-23T00:03:17.077Z,16.2
2018-04-23T00:04:18.692Z,16.3
2018-04-23T00:05:20.307Z,16.3
2018-04-23T00:06:21.933Z,16.3
2018-04-23T00:07:23.552Z,16.3
2018-04-23T00:08:25.168Z,16.3
2018-04-23T00:09:26.787Z,16.3
2018-04-23T00:10:28.397Z,16.3
2018-04-23T00:11:30.021Z,16.2
2018-04-23T00:12:31.634Z,16.3
2018-04-23T00:13:33.261Z,16.3
2018-04-23T00:14:34.880Z,16.3
2018-04-23T00:15:36.491Z,16.3
2018-04-23T00:16:38.111Z,16.3
2018-04-23T00:17:39.723Z,16.4
2018-04-23T00:18:41.341Z,16.3
2018-04-23T00:19:42.961Z,16.4
2018-04-23T00:20:44.582Z,16.4
2018-04-23T00:21:46.196Z,16.4
2018-04-23T00:22:47.811Z,16.6
2018-04-23T00:23:49.430Z,16.6
2018-04-23T00:24:51.050Z,16.5
2018-04-23T00:25:52.670Z,16.6
2018-04-23T00:26:54.286Z,16.6
2018-04-23T00:27:55.901Z,16.7
2018-04-23T00:28:57.535Z,16.7
2018-04-23T00:29:59.137Z,16.6
2018-04-23T00:31:00.752Z,16.7
2018-04-23T00:32:02.372Z,16.7
2018-04-23T00:33:03.989Z,16.6
2018-04-23T00:34:06.538Z,16.5
2018-04-23T00:35:08.162Z,16.5
2018-04-23T00:36:09.772Z,16.4
2018-04-23T00:37:11.386Z,16.4
2018-04-23T00:38:13.000Z,16.4
2018-04-23T00:39:14.616Z,16.4
2018-04-23T00:40:16.232Z,16.3
2018-04-23T00:41:17.850Z,16.3
2018-04-23T00:42:19.466Z,16.3
2018-04-23T00:43:21.088Z,16.4
2018-04-23T00:44:22.704Z,16.3
2018-04-23T00:45:24.320Z,16.3
2018-04-23T00:46:25.937Z,16.3
2018-04-23T00:47:27.553Z,16.3
2018-04-23T00:48:29.164Z,16.3
2018-04-23T00:49:30.788Z,16.3
2018-04-23T00:50:32.402Z,16.3
2018-04-23T00:51:34.019Z,16.2
2018-04-23T00:52:35.639Z,16.3
2018-04-23T00:53:37.250Z,16.4
2018-04-23T00:54:38.864Z,16.4
2018-04-23T00:55:40.491Z,16.3
2018-04-23T00:56:42.109Z,16.2
2018-04-23T00:57:43.728Z,16.3
2018-04-23T00:58:45.339Z,16.3
2018-04-23T00:59:46.959Z,16.3
2018-04-23T01:00:48.574Z,16.4
2018-04-23T01:01:50.194Z,16.4
2018-04-23T01:02:51.809Z,16.4
2018-04-23T01:03:53.427Z,16.4
2018-04-23T01:04:55.053Z,16.4
2018-04-23T01:05:56.664Z,16.4
2018-04-23T01:06:58.283Z,16.3
2018-04-23T01:07:59.904Z,16.3
2018-04-23T01:09:01.520Z,16.3
2018-04-23T01:10:03.135Z,16.4
2018-04-23T01:11:04.757Z,16.4
2018-04-23T01:12:06.376Z,16.3
2018-04-23T01:13:07.989Z,16.3
2018-04-23T01:14:09.603Z,16.2
2018-04-23T01:15:11.220Z,16.2
2018-04-23T01:16:12.836Z,16.3
2018-04-23T01:17:14.456Z,16.3
2018-04-23T01:18:16.077Z,16.2
2018-04-23T01:19:17.693Z,16.1
2018-04-23T01:20:19.309Z,16.1
2018-04-23T01:21:20.942Z,16.0
2018-04-23T01:22:22.561Z,16.1
2018-04-23T01:23:24.179Z,16.1
2018-04-23T01:24:25.798Z,16.0
2018-04-23T01:25:27.411Z,16.0
2018-04-23T01:26:29.032Z,16.0
2018-04-23T01:27:30.645Z,16.1
2018-04-23T01:28:32.258Z,15.9
2018-04-23T01:29:33.880Z,15.9
2018-04-23T01:30:35.495Z,15.8
2018-04-23T01:31:37.116Z,16.0
2018-04-23T01:32:38.740Z,16.0
2018-04-23T01:33:40.357Z,15.9
2018-04-23T01:34:41.971Z,15.8
2018-04-23T01:35:43.583Z,15.9
2018-04-23T01:36:45.202Z,15.8
2018-04-23T01:37:46.817Z,15.9
2018-04-23T01:38:48.441Z,15.7
2018-04-23T01:39:50.053Z,15.7
2018-04-23T01:40:51.673Z,15.8
2018-04-23T01:41:53.284Z,15.8
2018-04-23T01:42:54.899Z,15.7
2018-04-23T01:43:56.520Z,15.7
2018-04-23T01:44:58.135Z,15.6
2018-04-23T01:45:59.756Z,15.7
2018-04-23T01:47:01.377Z,15.6
2018-04-23T01:48:02.992Z,15.6
2018-04-23T01:49:04.609Z,15.6
2018-04-23T01:50:06.229Z,15.7
2018-04-23T01:51:07.845Z,15.5
2018-04-23T01:52:09.465Z,15.6
2018-04-23T01:53:11.089Z,15.5
2018-04-23T01:54:12.701Z,15.5
2018-04-23T01:55:14.326Z,15.5
2018-04-23T01:56:15.938Z,15.5
2018-04-23T01:57:17.554Z,15.4
2018-04-23T01:58:19.166Z,15.5
2018-04-23T01:59:20.787Z,15.4
2018-04-23T02:00:22.399Z,15.6
2018-04-23T02:01:24.017Z,15.4
2018-04-23T02:02:25.640Z,15.4
2018-04-23T02:03:27.252Z,15.5
2018-04-23T02:04:28.872Z,15.5
2018-04-23T02:05:30.491Z,15.4
2018-04-23T02:06:32.108Z,15.4
2018-04-23T02:07:33.727Z,15.5
2018-04-23T02:08:35.347Z,15.4
2018-04-23T02:09:36.964Z,15.4
2018-04-23T02:10:38.574Z,15.4
2018-04-23T02:11:40.194Z,15.5
2018-04-23T02:12:41.811Z,15.4
2018-04-23T02:13:43.433Z,15.5
2018-04-23T02:14:45.046Z,15.4
2018-04-23T02:15:46.660Z,15.4
2018-04-23T02:16:48.283Z,15.4
2018-04-23T02:17:49.898Z,15.3
2018-04-23T02:18:51.515Z,15.3
2018-04-23T02:19:53.135Z,15.3
2018-04-23T02:20:54.746Z,15.3
2018-04-23T02:21:56.366Z,15.3
2018-04-23T02:22:58.023Z,15.2
2018-04-23T02:23:59.605Z,15.4
2018-04-23T02:25:01.218Z,15.3
2018-04-23T02:26:02.839Z,15.3
2018-04-23T02:27:04.451Z,15.3
2018-04-23T02:28:06.076Z,15.3
2018-04-23T02:29:07.693Z,15.4
2018-04-23T02:30:09.312Z,15.3
2018-04-23T02:31:10.927Z,15.3
2018-04-23T02:32:12.540Z,15.2
2018-04-23T02:33:14.161Z,15.4
2018-04-23T02:34:15.773Z,15.3
2018-04-23T02:35:17.393Z,15.3
2018-04-23T02:36:19.013Z,15.3
2018-04-23T02:37:20.628Z,15.5
2018-04-23T02:38:22.245Z,15.4
2018-04-23T02:39:23.862Z,15.3
2018-04-23T02:40:25.476Z,15.3
2018-04-23T02:41:27.094Z,15.3
2018-04-23T02:42:28.711Z,15.3
2018-04-23T02:43:30.325Z,15.3
2018-04-23T02:44:31.942Z,15.3
2018-04-23T02:45:33.559Z,15.3
2018-04-23T02:46:35.176Z,15.5
2018-04-23T02:47:36.791Z,15.4
2018-04-23T02:48:38.413Z,15.5
2018-04-23T02:49:40.026Z,15.5
2018-04-23T02:50:41.650Z,15.4
2018-04-23T02:51:43.262Z,15.5
2018-04-23T02:52:44.884Z,15.4
2018-04-23T02:53:46.494Z,15.5
2018-04-23T02:54:48.107Z,15.6
2018-04-23T02:55:49.725Z,15.5
2018-04-23T02:56:51.338Z,15.6
2018-04-23T02:57:52.963Z,15.6
2018-04-23T02:58:54.576Z,15.6
2018-04-23T02:59:56.191Z,15.5
2018-04-23T03:00:57.802Z,15.5
2018-04-23T03:01:59.416Z,15.6
2018-04-23T03:03:01.031Z,15.6
2018-04-23T03:04:02.648Z,15.7
2018-04-23T03:05:04.270Z,15.8
2018-04-23T03:06:05.884Z,15.7
2018-04-23T03:07:07.499Z,15.7
2018-04-23T03:08:09.116Z,15.7
2018-04-23T03:09:10.732Z,15.7
2018-04-23T03:10:12.351Z,15.7
2018-04-23T03:11:13.968Z,15.6
2018-04-23T03:12:15.580Z,15.7
2018-04-23T03:13:17.197Z,15.6
2018-04-23T03:14:18.818Z,15.8
2018-04-23T03:15:20.430Z,15.7
2018-04-23T03:16:22.048Z,15.7
2018-04-23T03:17:23.666Z,15.8
2018-04-23T03:18:25.281Z,15.8
2018-04-23T03:19:26.896Z,15.8
2018-04-23T03:20:28.521Z,15.8
2018-04-23T03:21:30.138Z,15.8
2018-04-23T03:22:31.748Z,15.8
2018-04-23T03:23:33.367Z,15.8
2018-04-23T03:24:34.981Z,15.8
2018-04-23T03:25:36.598Z,15.9
2018-04-23T03:26:38.219Z,15.9
2018-04-23T03:27:39.837Z,15.8
2018-04-23T03:28:41.451Z,15.8
2018-04-23T03:29:43.070Z,15.8
2018-04-23T03:30:44.689Z,15.8
2018-04-23T03:31:46.304Z,15.7
2018-04-23T03:32:47.923Z,15.9
2018-04-23T03:33:49.542Z,15.8
2018-04-23T03:34:51.157Z,15.9
2018-04-23T03:35:52.774Z,16.0
2018-04-23T03:36:54.391Z,15.9
2018-04-23T03:37:56.005Z,16.0
2018-04-23T03:38:57.624Z,16.0
2018-04-23T03:39:59.241Z,16.0
2018-04-23T03:41:00.854Z,16.0
2018-04-23T03:42:02.475Z,16.0
2018-04-23T03:43:04.090Z,16.0
2018-04-23T03:44:05.704Z,16.0
2018-04-23T03:45:07.327Z,16.0
2018-04-23T03:46:08.934Z,16.0
2018-04-23T03:47:10.556Z,16.0
2018-04-23T03:48:12.175Z,16.0
2018-04-23T03:49:13.786Z,16.1
2018-04-23T03:50:15.402Z,16.1
2018-04-23T03:51:17.020Z,16.0
2018-04-23T03:52:18.633Z,16.1
2018-04-23T03:53:20.253Z,16.0
2018-04-23T03:54:21.866Z,16.0
2018-04-23T03:55:23.485Z,16.1
2018-04-23T03:56:25.103Z,16.0
2018-04-23T03:57:26.720Z,16.1
2018-04-23T03:58:28.333Z,16.1
2018-04-23T03:59:29.950Z,16.0
2018-04-23T04:00:31.561Z,16.1
2018-04-23T04:01:33.179Z,16.1
2018-04-23T04:02:34.791Z,15.9
2018-04-23T04:03:36.415Z,16.0
2018-04-23T04:04:38.036Z,16.0
2018-04-23T04:05:39.650Z,16.1
2018-04-23T04:06:41.267Z,16.0
2018-04-23T04:07:42.888Z,16.0
2018-04-23T04:08:44.502Z,16.0
2018-04-23T04:09:46.123Z,16.0
2018-04-23T04:10:47.739Z,15.9
2018-04-23T04:11:49.363Z,15.9
2018-04-23T04:12:50.974Z,15.9
2018-04-23T04:13:52.596Z,15.9
2018-04-23T04:14:54.207Z,15.9
2018-04-23T04:15:55.828Z,15.9
2018-04-23T04:16:57.465Z,15.9
2018-04-23T04:17:59.062Z,15.9
2018-04-23T04:19:00.681Z,15.8
2018-04-23T04:20:02.298Z,15.9
2018-04-23T04:21:03.915Z,15.9
2018-04-23T04:22:05.536Z,15.9
2018-04-23T04:23:07.156Z,15.9
2018-04-23T04:24:08.776Z,15.9
2018-04-23T04:25:10.399Z,15.9
2018-04-23T04:26:12.018Z,16.0
2018-04-23T04:27:13.634Z,15.9
2018-04-23T04:28:15.259Z,15.9
2018-04-23T04:29:16.876Z,15.8
2018-04-23T04:30:18.500Z,15.8
2018-04-23T04:31:20.122Z,15.8
2018-04-23T04:32:21.742Z,15.9
2018-04-23T04:33:23.360Z,15.9
2018-04-23T04:34:24.976Z,15.7
2018-04-23T04:35:26.599Z,15.9
2018-04-23T04:36:28.213Z,15.8
2018-04-23T04:37:29.830Z,15.8
2018-04-23T04:38:31.453Z,15.8
2018-04-23T04:39:33.079Z,15.8
2018-04-23T04:40:34.694Z,15.8
2018-04-23T04:41:36.340Z,15.8
2018-04-23T04:42:37.963Z,15.9
2018-04-23T04:43:39.595Z,16.0
2018-04-23T04:44:41.218Z,16.0
2018-04-23T04:45:42.835Z,16.0
2018-04-23T04:46:44.459Z,16.0
2018-04-23T04:47:46.082Z,16.0
2018-04-23T04:48:47.699Z,16.0
2018-04-23T04:49:49.320Z,16.1
2018-04-23T04:50:50.936Z,15.9
2018-04-23T04:51:52.554Z,15.9
2018-04-23T04:52:54.183Z,15.9
2018-04-23T04:53:55.803Z,15.8
2018-04-23T04:54:57.427Z,15.9
2018-04-23T04:55:59.049Z,15.9
2018-04-23T04:57:00.668Z,15.9
2018-04-23T04:58:02.285Z,15.8
2018-04-23T04:59:03.951Z,15.8
2018-04-23T05:00:05.522Z,15.8
2018-04-23T05:01:07.146Z,15.8
2018-04-23T05:02:08.770Z,15.9
2018-04-23T05:03:10.387Z,15.9
2018-04-23T05:04:12.011Z,15.8
2018-04-23T05:05:13.629Z,15.8
2018-04-23T05:06:15.255Z,15.9
2018-04-23T05:07:16.870Z,16.0
2018-04-23T05:08:18.489Z,15.9
2018-04-23T05:09:20.113Z,15.8
2018-04-23T05:10:21.736Z,15.8
2018-04-23T05:11:23.354Z,16.0
2018-04-23T05:12:24.973Z,15.9
2018-04-23T05:13:26.616Z,16.0
2018-04-23T05:14:28.239Z,16.1
2018-04-23T05:15:29.859Z,15.9
2018-04-23T05:16:31.481Z,16.1
2018-04-23T05:17:33.103Z,16.0
2018-04-23T05:18:34.721Z,16.1
2018-04-23T05:19:36.342Z,16.2
2018-04-23T05:20:37.971Z,16.2
2018-04-23T05:21:39.588Z,16.1
2018-04-23T05:22:41.212Z,16.1
2018-04-23T05:23:42.839Z,16.2
2018-04-23T05:24:44.452Z,16.3
2018-04-23T05:25:46.076Z,16.3
2018-04-23T05:26:48.358Z,16.2
2018-04-23T05:27:49.979Z,16.1
2018-04-23T05:28:51.603Z,16.2
2018-04-23T05:29:53.229Z,16.3
2018-04-23T05:30:54.850Z,16.3
2018-04-23T05:31:56.470Z,16.3
2018-04-23T05:32:58.092Z,16.3
2018-04-23T05:33:59.711Z,16.3
2018-04-23T05:35:01.332Z,16.3
2018-04-23T05:36:02.954Z,16.4
2018-04-23T05:37:04.577Z,16.4
2018-04-23T05:38:06.200Z,16.4
2018-04-23T05:39:07.821Z,16.4
2018-04-23T05:40:09.442Z,16.4
2018-04-23T05:41:11.065Z,16.4
2018-04-23T05:42:12.683Z,16.5
2018-04-23T05:43:14.338Z,16.6
2018-04-23T05:44:15.929Z,16.5
2018-04-23T05:45:17.552Z,16.6
2018-04-23T05:46:19.174Z,16.6
2018-04-23T05:47:20.805Z,16.5
2018-04-23T05:48:22.419Z,16.5
2018-04-23T05:49:24.040Z,16.6
2018-04-23T05:50:25.668Z,16.6
2018-04-23T05:51:27.290Z,16.6
2018-04-23T05:52:28.913Z,16.7
2018-04-23T05:53:30.530Z,16.7
2018-04-23T05:54:32.153Z,16.7
2018-04-23T05:55:33.772Z,16.7
2018-04-23T05:56:35.397Z,16.8
2018-04-23T05:57:37.021Z,16.9
2018-04-23T05:58:38.643Z,16.9
2018-04-23T05:59:40.275Z,17.0
2018-04-23T06:00:41.886Z,17.1
2018-04-23T06:01:43.506Z,17.0
2018-04-23T06:02:45.134Z,17.2
2018-04-23T06:03:46.754Z,17.3
2018-04-23T06:04:48.380Z,17.5
2018-04-23T06:05:49.999Z,17.5
2018-04-23T06:06:51.622Z,17.6
2018-04-23T06:07:53.240Z,17.6
2018-04-23T06:08:54.905Z,17.8
2018-04-23T06:09:56.483Z,17.8
2018-04-23T06:10:58.108Z,18.0
2018-04-23T06:11:59.733Z,18.0
2018-04-23T06:13:01.354Z,18.0
2018-04-23T06:14:02.986Z,18.4
2018-04-23T06:15:04.603Z,18.6
2018-04-23T06:16:06.224Z,18.9
2018-04-23T06:17:07.850Z,18.9
2018-04-23T06:18:09.472Z,18.9
2018-04-23T06:19:11.101Z,19.3
2018-04-23T06:20:12.726Z,19.3
2018-04-23T06:21:14.348Z,19.4
2018-04-23T06:22:15.967Z,19.7
2018-04-23T06:23:17.587Z,20.0
2018-04-23T06:24:19.210Z,20.1
2018-04-23T06:25:20.833Z,20.4
2018-04-23T06:26:22.463Z,20.4
2018-04-23T06:27:24.083Z,20.2
2018-04-23T06:28:25.705Z,19.8
2018-04-23T06:29:27.334Z,19.7
2018-04-23T06:30:28.956Z,19.7
2018-04-23T06:31:30.576Z,19.6
2018-04-23T06:32:32.205Z,19.5
2018-04-23T06:33:33.828Z,19.4
2018-04-23T06:34:35.451Z,19.5
2018-04-23T06:35:37.079Z,19.1
2018-04-23T06:36:38.703Z,19.1
2018-04-23T06:37:40.332Z,18.9
2018-04-23T06:38:41.956Z,18.7
2018-04-23T06:39:43.574Z,18.5
2018-04-23T06:40:45.198Z,18.5
2018-04-23T06:41:46.821Z,18.3
2018-04-23T06:42:48.449Z,18.3
2018-04-23T06:43:50.072Z,18.2
2018-04-23T06:44:51.691Z,18.0
2018-04-23T06:45:53.316Z,18.1
2018-04-23T06:46:54.945Z,18.0
2018-04-23T06:47:56.564Z,17.9
2018-04-23T06:48:58.190Z,17.8
2018-04-23T06:49:59.813Z,17.7
2018-04-23T06:51:01.428Z,17.6
2018-04-23T06:52:03.058Z,17.6
2018-04-23T06:53:04.682Z,17.6
2018-04-23T06:54:06.309Z,17.5
2018-04-23T06:55:07.926Z,17.9
2018-04-23T06:56:09.554Z,17.9
2018-04-23T06:57:11.182Z,18.2
2018-04-23T06:58:12.802Z,18.3
2018-04-23T06:59:14.425Z,18.4
2018-04-23T07:00:16.047Z,18.4
2018-04-23T07:01:17.670Z,18.4
2018-04-23T07:02:19.290Z,18.4
2018-04-23T07:03:20.919Z,18.2
2018-04-23T07:04:22.543Z,18.1
2018-04-23T07:05:24.160Z,18.2
2018-04-23T07:06:25.786Z,18.2
2018-04-23T07:07:27.410Z,18.1
2018-04-23T07:08:29.031Z,18.1
2018-04-23T07:09:30.657Z,18.2
2018-04-23T07:10:32.330Z,18.2
2018-04-23T07:11:33.900Z,18.0
2018-04-23T07:12:35.524Z,17.9
2018-04-23T07:13:37.181Z,17.9
2018-04-23T07:14:38.768Z,18.1
2018-04-23T07:15:40.397Z,17.9
2018-04-23T07:16:42.013Z,17.9
2018-04-23T07:17:43.648Z,17.7
2018-04-23T07:18:45.268Z,17.7
2018-04-23T07:19:46.892Z,17.5
2018-04-23T07:20:48.503Z,17.6
2018-04-23T07:21:50.124Z,17.5
2018-04-23T07:22:51.748Z,17.6
2018-04-23T07:23:53.375Z,17.7
2018-04-23T07:24:54.995Z,17.5
2018-04-23T07:25:56.623Z,17.4
2018-04-23T07:26:58.242Z,17.3
2018-04-23T07:27:59.861Z,17.4
2018-04-23T07:29:01.490Z,17.4
2018-04-23T07:30:03.112Z,17.5
2018-04-23T07:31:04.740Z,17.6
2018-04-23T07:32:06.361Z,17.7
2018-04-23T07:33:07.979Z,17.8
2018-04-23T07:34:10.346Z,17.9
2018-04-23T07:35:11.973Z,17.9
2018-04-23T07:36:13.591Z,17.8
2018-04-23T07:37:15.218Z,17.7
2018-04-23T07:38:18.455Z,17.8
2018-04-23T07:39:20.079Z,17.9
2018-04-23T07:40:21.701Z,17.8
2018-04-23T07:41:23.323Z,17.8
2018-04-23T07:42:24.944Z,17.9
2018-04-23T07:43:26.572Z,18.2
2018-04-23T07:44:28.188Z,18.1
2018-04-23T07:45:29.822Z,18.2
2018-04-23T07:46:31.435Z,18.3
2018-04-23T07:47:33.060Z,18.5
2018-04-23T07:48:34.685Z,18.8
2018-04-23T07:49:36.302Z,19.3
2018-04-23T07:50:37.926Z,19.3
2018-04-23T07:51:39.554Z,20.5
2018-04-23T07:52:41.177Z,21.4
2018-04-23T07:53:42.805Z,21.2
2018-04-23T07:54:44.428Z,22.5
2018-04-23T07:55:46.060Z,22.5
2018-04-23T07:56:47.680Z,22.6
2018-04-23T07:57:49.309Z,22.8
2018-04-23T07:58:50.933Z,23.2
2018-04-23T07:59:52.563Z,23.3
2018-04-23T08:00:54.187Z,22.9
2018-04-23T08:01:55.821Z,21.9
2018-04-23T08:02:57.442Z,21.8
2018-04-23T08:03:59.069Z,21.4
2018-04-23T08:05:00.692Z,21.3
2018-04-23T08:06:02.317Z,21.1
2018-04-23T08:07:03.944Z,20.9
2018-04-23T08:08:05.576Z,20.8
2018-04-23T08:09:07.206Z,20.7
2018-04-23T08:10:08.832Z,21.1
2018-04-23T08:11:10.462Z,21.7
2018-04-23T08:12:12.108Z,22.2
2018-04-23T08:13:13.716Z,23.0
2018-04-23T08:14:15.344Z,23.2
2018-04-23T08:15:16.977Z,23.2
2018-04-23T08:16:18.604Z,22.9
2018-04-23T08:17:20.229Z,22.7
2018-04-23T08:18:21.859Z,22.8
2018-04-23T08:19:23.483Z,23.6
2018-04-23T08:20:25.114Z,23.9
2018-04-23T08:21:26.744Z,23.6
2018-04-23T08:22:28.372Z,23.5
2018-04-23T08:23:30.003Z,22.8
2018-04-23T08:24:31.631Z,22.9
2018-04-23T08:25:33.256Z,23.0
2018-04-23T08:26:34.885Z,22.9
2018-04-23T08:27:36.516Z,23.4
2018-04-23T08:28:38.143Z,23.6
2018-04-23T08:29:39.783Z,23.3
2018-04-23T08:30:41.404Z,24.2
2018-04-23T08:31:43.044Z,25.6
2018-04-23T08:32:44.658Z,25.1
2018-04-23T08:33:46.286Z,26.3
2018-04-23T08:34:47.922Z,26.7
2018-04-23T08:35:49.550Z,27.1
2018-04-23T08:36:51.185Z,27.6
2018-04-23T08:37:52.821Z,28.4
2018-04-23T08:38:54.447Z,28.4
2018-04-23T08:39:56.081Z,29.2
2018-04-23T08:40:57.708Z,30.0
2018-04-23T08:41:59.343Z,30.1
2018-04-23T08:43:00.974Z,30.5
2018-04-23T08:44:02.617Z,30.8
2018-04-23T08:45:04.248Z,30.8
2018-04-23T08:46:05.885Z,30.9
2018-04-23T08:47:07.521Z,30.4
2018-04-23T08:48:09.149Z,30.2
2018-04-23T08:49:10.785Z,30.2
2018-04-23T08:50:12.418Z,30.9
2018-04-23T08:51:14.058Z,30.8
2018-04-23T08:52:15.703Z,31.1
2018-04-23T08:53:17.329Z,30.6
2018-04-23T08:54:18.963Z,30.8
2018-04-23T08:55:20.599Z,30.7
2018-04-23T08:56:22.234Z,30.9
2018-04-23T08:57:23.876Z,30.5
2018-04-23T08:58:25.516Z,31.1
2018-04-23T08:59:27.155Z,30.5
2018-04-23T09:00:28.787Z,29.6
2018-04-23T09:01:30.442Z,29.3
2018-04-23T09:02:32.062Z,30.4
2018-04-23T09:03:33.698Z,31.0
2018-04-23T09:04:35.334Z,31.1
2018-04-23T09:05:36.978Z,32.0
2018-04-23T09:06:38.611Z,31.7
2018-04-23T09:07:40.252Z,30.8
2018-04-23T09:08:41.890Z,29.6
2018-04-23T09:09:43.523Z,30.6
2018-04-23T09:10:45.162Z,31.0
2018-04-23T09:11:46.839Z,30.2
2018-04-23T09:12:48.433Z,30.4
2018-04-23T09:13:50.072Z,30.7
2018-04-23T09:14:51.714Z,30.5
2018-04-23T09:15:53.344Z,31.4
2018-04-23T09:16:54.986Z,31.3
2018-04-23T09:17:56.619Z,32.0
2018-04-23T09:18:58.255Z,32.1
2018-04-23T09:19:59.897Z,32.9
2018-04-23T09:21:01.538Z,32.8
2018-04-23T09:22:03.170Z,32.2
2018-04-23T09:23:04.805Z,32.1
2018-04-23T09:24:06.440Z,31.2
2018-04-23T09:25:08.080Z,31.4
2018-04-23T09:26:09.714Z,30.6
2018-04-23T09:27:11.356Z,30.9
2018-04-23T09:28:12.995Z,31.5
2018-04-23T09:29:14.624Z,31.3
2018-04-23T09:30:16.263Z,30.5
2018-04-23T09:31:17.900Z,29.7
2018-04-23T09:32:19.535Z,30.5
2018-04-23T09:33:21.180Z,30.2
2018-04-23T09:34:22.818Z,29.6
2018-04-23T09:35:24.454Z,29.5
2018-04-23T09:36:26.093Z,30.4
2018-04-23T09:37:27.732Z,30.4
2018-04-23T09:38:29.372Z,29.4
2018-04-23T09:39:31.011Z,28.7
2018-04-23T09:40:32.645Z,29.7
2018-04-23T09:41:34.276Z,29.1
2018-04-23T09:42:35.914Z,28.9
2018-04-23T09:43:37.551Z,28.8
2018-04-23T09:44:39.199Z,28.1
2018-04-23T09:45:40.820Z,28.0
2018-04-23T09:46:42.459Z,28.7
2018-04-23T09:47:44.098Z,27.9
2018-04-23T09:48:45.733Z,27.3
2018-04-23T09:49:47.369Z,27.2
2018-04-23T09:50:48.999Z,26.8
2018-04-23T09:51:50.630Z,26.7
2018-04-23T09:52:52.271Z,27.5
2018-04-23T09:53:53.910Z,27.8
2018-04-23T09:54:55.546Z,28.7
2018-04-23T09:55:57.184Z,29.2
2018-04-23T09:56:58.818Z,29.7
2018-04-23T09:58:00.458Z,29.8
2018-04-23T09:59:02.093Z,30.0
2018-04-23T10:00:03.735Z,30.4
2018-04-23T10:01:05.370Z,30.8
2018-04-23T10:02:07.009Z,30.4
2018-04-23T10:03:08.645Z,30.2
2018-04-23T10:04:10.285Z,30.6
2018-04-23T10:05:11.920Z,30.3
2018-04-23T10:06:13.556Z,30.1
2018-04-23T10:07:15.195Z,29.3
2018-04-23T10:08:16.831Z,28.4
2018-04-23T10:09:18.473Z,27.7
2018-04-23T10:10:20.116Z,27.7
2018-04-23T10:11:21.758Z,27.6
2018-04-23T10:12:23.391Z,27.6
2018-04-23T10:13:25.026Z,27.4
2018-04-23T10:14:27.356Z,27.4
2018-04-23T10:15:28.999Z,27.4
2018-04-23T10:16:30.628Z,27.2
2018-04-23T10:17:32.265Z,26.9
2018-04-23T10:18:33.905Z,26.9
2018-04-23T10:19:35.535Z,26.6
2018-04-23T10:20:37.167Z,27.0
2018-04-23T10:21:38.805Z,27.1
2018-04-23T10:22:40.433Z,26.6
2018-04-23T10:23:42.070Z,26.1
2018-04-23T10:24:43.705Z,25.4
2018-04-23T10:25:45.341Z,25.1
2018-04-23T10:26:46.972Z,25.1
2018-04-23T10:27:48.601Z,25.3
2018-04-23T10:28:50.231Z,25.2
2018-04-23T10:29:51.861Z,25.1
2018-04-23T10:30:53.493Z,24.8
2018-04-23T10:31:55.122Z,24.4
2018-04-23T10:32:56.764Z,24.6
2018-04-23T10:33:58.386Z,25.4
2018-04-23T10:35:00.018Z,26.1
2018-04-23T10:36:01.647Z,26.0
2018-04-23T10:37:03.281Z,26.7
2018-04-23T10:38:04.918Z,27.2
2018-04-23T10:39:06.548Z,27.2
2018-04-23T10:40:08.185Z,27.0
2018-04-23T10:41:09.814Z,27.4
2018-04-23T10:42:11.454Z,27.8
2018-04-23T10:43:13.087Z,28.5
2018-04-23T10:44:14.717Z,28.7
2018-04-23T10:45:16.360Z,28.9
2018-04-23T10:46:17.999Z,28.9
2018-04-23T10:47:19.632Z,29.0
2018-04-23T10:48:21.265Z,29.1
2018-04-23T10:49:22.900Z,29.7
2018-04-23T10:50:24.539Z,29.5
2018-04-23T10:51:26.186Z,29.8
2018-04-23T10:52:27.814Z,29.7
2018-04-23T10:53:29.452Z,29.5
2018-04-23T10:54:31.094Z,29.1
2018-04-23T10:55:32.724Z,29.2
2018-04-23T10:56:34.364Z,29.4
2018-04-23T10:57:36.004Z,29.9
2018-04-23T10:58:37.638Z,30.2
2018-04-23T10:59:39.279Z,29.3
2018-04-23T11:00:40.916Z,29.6
2018-04-23T11:01:42.559Z,29.7
2018-04-23T11:02:44.191Z,29.9
2018-04-23T11:03:45.828Z,30.1
2018-04-23T11:04:47.464Z,29.3
2018-04-23T11:05:49.103Z,29.1
2018-04-23T11:06:50.744Z,29.1
2018-04-23T11:07:52.382Z,28.8
2018-04-23T11:08:54.016Z,28.3
2018-04-23T11:09:55.650Z,27.9
2018-04-23T11:10:57.288Z,28.0
2018-04-23T11:11:58.920Z,27.4
2018-04-23T11:13:00.560Z,26.7
2018-04-23T11:14:02.197Z,25.7
2018-04-23T11:15:03.829Z,25.5
2018-04-23T11:16:05.472Z,25.6
2018-04-23T11:17:07.101Z,25.4
2018-04-23T11:18:08.738Z,25.5
2018-04-23T11:19:10.367Z,25.9
2018-04-23T11:20:11.996Z,26.4
2018-04-23T11:21:13.628Z,27.0
2018-04-23T11:22:15.265Z,26.8
2018-04-23T11:23:16.905Z,26.3
2018-04-23T11:24:18.539Z,26.1
2018-04-23T11:25:20.170Z,26.1
2018-04-23T11:26:21.807Z,26.6
2018-04-23T11:27:23.437Z,27.0
2018-04-23T11:28:25.077Z,27.1
2018-04-23T11:29:26.711Z,27.8
2018-04-23T11:30:28.347Z,28.4
2018-04-23T11:31:29.979Z,29.1
2018-04-23T11:32:31.616Z,29.4
2018-04-23T11:33:33.264Z,29.8
2018-04-23T11:34:34.887Z,29.9
2018-04-23T11:35:36.529Z,30.5
2018-04-23T11:36:38.164Z,30.6
2018-04-23T11:37:39.800Z,30.8
2018-04-23T11:38:41.436Z,30.5
2018-04-23T11:39:43.072Z,30.2
2018-04-23T11:40:44.704Z,30.1
2018-04-23T11:41:46.346Z,30.0
2018-04-23T11:42:47.986Z,29.9
2018-04-23T11:43:49.622Z,30.2
2018-04-23T11:44:51.263Z,30.2
2018-04-23T11:45:52.901Z,30.2
2018-04-23T11:46:54.539Z,30.5
2018-04-23T11:47:56.177Z,30.2
2018-04-23T11:48:57.814Z,30.0
2018-04-23T11:49:59.457Z,30.2
2018-04-23T11:51:01.091Z,30.2
2018-04-23T11:52:02.737Z,30.3
2018-04-23T11:53:04.371Z,29.8
2018-04-23T11:54:06.002Z,29.3
2018-04-23T11:55:07.642Z,30.1
2018-04-23T11:56:09.285Z,30.6
2018-04-23T11:57:10.920Z,30.9
2018-04-23T11:58:12.565Z,30.6
2018-04-23T11:59:14.223Z,30.7
2018-04-23T12:00:15.839Z,30.5
2018-04-23T12:01:17.478Z,30.7
2018-04-23T12:02:19.112Z,30.9
2018-04-23T12:03:20.749Z,30.8
2018-04-23T12:04:22.392Z,31.1
2018-04-23T12:05:24.034Z,30.9
2018-04-23T12:06:25.673Z,30.8
2018-04-23T12:07:27.304Z,31.2
2018-04-23T12:08:28.945Z,31.4
2018-04-23T12:09:30.582Z,31.5
2018-04-23T12:10:32.224Z,31.2
2018-04-23T12:11:33.866Z,31.8
2018-04-23T12:12:35.502Z,31.3
2018-04-23T12:13:37.140Z,30.9
2018-04-23T12:14:38.781Z,30.5
2018-04-23T12:15:40.415Z,30.5
2018-04-23T12:16:42.055Z,30.6
2018-04-23T12:17:43.696Z,30.2
2018-04-23T12:18:45.329Z,29.5
2018-04-23T12:19:46.971Z,29.2
2018-04-23T12:20:48.607Z,28.9
2018-04-23T12:21:50.245Z,28.9
2018-04-23T12:22:51.876Z,28.6
2018-04-23T12:23:53.512Z,28.7
2018-04-23T12:24:55.149Z,28.3
2018-04-23T12:25:56.786Z,27.9
2018-04-23T12:26:58.422Z,27.8
2018-04-23T12:28:00.060Z,27.4
2018-04-23T12:29:01.690Z,27.2
2018-04-23T12:30:03.325Z,27.6
2018-04-23T12:31:04.959Z,27.8
2018-04-23T12:32:06.593Z,27.3
2018-04-23T12:33:08.229Z,27.2
2018-04-23T12:34:09.862Z,27.6
2018-04-23T12:35:11.498Z,27.6
2018-04-23T12:36:13.130Z,28.0
2018-04-23T12:37:14.766Z,28.0
2018-04-23T12:38:16.395Z,28.5
2018-04-23T12:39:18.040Z,28.2
2018-04-23T12:40:19.665Z,28.4
2018-04-23T12:41:21.306Z,28.4
2018-04-23T12:42:22.938Z,28.1
2018-04-23T12:43:24.568Z,27.8
2018-04-23T12:44:26.203Z,28.4
2018-04-23T12:45:27.834Z,28.5
2018-04-23T12:46:29.465Z,28.4
2018-04-23T12:47:31.106Z,28.5
2018-04-23T12:48:32.731Z,28.9
2018-04-23T12:49:34.371Z,29.3
2018-04-23T12:50:36.002Z,29.7
2018-04-23T12:51:37.640Z,30.2
2018-04-23T12:52:39.270Z,30.2
2018-04-23T12:53:40.905Z,30.6
2018-04-23T12:54:42.547Z,30.6
2018-04-23T12:55:44.189Z,31.3
2018-04-23T12:56:45.824Z,31.3
2018-04-23T12:57:47.459Z,30.9
2018-04-23T12:58:49.089Z,31.1
2018-04-23T12:59:50.724Z,31.4
2018-04-23T13:00:52.360Z,31.3
2018-04-23T13:01:53.996Z,31.0
2018-04-23T13:02:55.637Z,30.4
2018-04-23T13:03:57.270Z,30.3
2018-04-23T13:04:58.904Z,30.4
2018-04-23T13:06:00.545Z,29.6
2018-04-23T13:07:02.173Z,29.8
2018-04-23T13:08:03.812Z,30.2
2018-04-23T13:09:05.450Z,30.7
2018-04-23T13:10:07.083Z,31.2
2018-04-23T13:11:08.724Z,31.5
2018-04-23T13:12:10.361Z,31.7
2018-04-23T13:13:11.989Z,31.9
2018-04-23T13:14:13.630Z,32.3
2018-04-23T13:15:15.265Z,32.4
2018-04-23T13:16:16.903Z,32.7
2018-04-23T13:17:18.542Z,32.1
2018-04-23T13:18:20.209Z,31.9
2018-04-23T13:19:21.812Z,31.8
2018-04-23T13:20:23.447Z,31.7
2018-04-23T13:21:25.079Z,31.8
2018-04-23T13:22:26.725Z,31.3
2018-04-23T13:23:28.360Z,31.8
2018-04-23T13:24:29.997Z,32.0
2018-04-23T13:25:31.637Z,31.8
2018-04-23T13:26:33.270Z,32.1
2018-04-23T13:27:34.912Z,32.3
2018-04-23T13:28:36.541Z,32.2
2018-04-23T13:29:38.178Z,32.7
2018-04-23T13:30:39.818Z,33.1
2018-04-23T13:31:41.450Z,33.3
2018-04-23T13:32:43.093Z,33.1
2018-04-23T13:33:44.730Z,32.0
2018-04-23T13:34:46.365Z,32.0
2018-04-23T13:35:47.998Z,31.2
2018-04-23T13:36:49.638Z,31.8
2018-04-23T13:37:51.275Z,31.5
2018-04-23T13:38:52.909Z,31.7
2018-04-23T13:39:54.551Z,31.7